sensor_id;sensor_type;location;lat;lon;timestamp;pressure;altitude;pressure_sealevel;temperature;humidity
77019;BME280;66044;53.142;17.962;2023-07-22T00:00:29;100495.36;;;16.69;63.95
77019;BME280;66044;53.142;17.962;2023-07-22T00:03:16;100492.03;;;16.69;64.20
77019;BME280;66044;53.142;17.962;2023-07-22T00:05:42;100494.30;;;16.69;64.05
77019;BME280;66044;53.142;17.962;2023-07-22T00:08:10;100493.80;;;16.67;64.23
77019;BME280;66044;53.142;17.962;2023-07-22T00:10:40;100492.92;;;16.66;64.22
77019;BME280;66044;53.142;17.962;2023-07-22T00:13:07;100490.48;;;16.62;64.01
77019;BME280;66044;53.142;17.962;2023-07-22T00:15:33;100490.74;;;16.59;64.40
77019;BME280;66044;53.142;17.962;2023-07-22T00:18:00;100489.73;;;16.54;64.06
77019;BME280;66044;53.142;17.962;2023-07-22T00:20:26;100485.88;;;16.48;63.64
77019;BME280;66044;53.142;17.962;2023-07-22T00:22:53;100483.08;;;16.40;64.30
77019;BME280;66044;53.142;17.962;2023-07-22T00:25:19;100476.13;;;16.35;64.68
77019;BME280;66044;53.142;17.962;2023-07-22T00:27:45;100478.95;;;16.32;64.82
77019;BME280;66044;53.142;17.962;2023-07-22T00:30:13;100479.16;;;16.29;64.91
77019;BME280;66044;53.142;17.962;2023-07-22T00:32:39;100472.77;;;16.27;65.30
77019;BME280;66044;53.142;17.962;2023-07-22T00:37:54;100461.27;;;16.22;65.59
77019;BME280;66044;53.142;17.962;2023-07-22T00:40:22;100457.31;;;16.22;65.85
77019;BME280;66044;53.142;17.962;2023-07-22T00:42:49;100456.08;;;16.23;65.89
77019;BME280;66044;53.142;17.962;2023-07-22T00:45:15;100457.00;;;16.22;65.92
77019;BME280;66044;53.142;17.962;2023-07-22T00:47:43;100458.30;;;16.21;65.92
77019;BME280;66044;53.142;17.962;2023-07-22T00:50:10;100461.69;;;16.20;65.98
77019;BME280;66044;53.142;17.962;2023-07-22T00:52:40;100466.64;;;16.20;65.93
77019;BME280;66044;53.142;17.962;2023-07-22T00:55:07;100466.35;;;16.21;66.23
77019;BME280;66044;53.142;17.962;2023-07-22T00:57:34;100468.05;;;16.21;66.25
77019;BME280;66044;53.142;17.962;2023-07-22T01:00:00;100464.93;;;16.20;66.46
77019;BME280;66044;53.142;17.962;2023-07-22T01:02:26;100461.92;;;16.20;66.60
77019;BME280;66044;53.142;17.962;2023-07-22T01:04:53;100462.30;;;16.20;66.21
77019;BME280;66044;53.142;17.962;2023-07-22T01:07:19;100461.60;;;16.20;66.53
77019;BME280;66044;53.142;17.962;2023-07-22T01:09:46;100463.94;;;16.20;66.53
77019;BME280;66044;53.142;17.962;2023-07-22T01:12:12;100463.99;;;16.19;66.74
77019;BME280;66044;53.142;17.962;2023-07-22T01:14:41;100460.59;;;16.19;66.74
77019;BME280;66044;53.142;17.962;2023-07-22T01:17:09;100456.34;;;16.20;66.72
77019;BME280;66044;53.142;17.962;2023-07-22T01:19:36;100457.80;;;16.20;66.87
77019;BME280;66044;53.142;17.962;2023-07-22T01:22:04;100457.13;;;16.20;67.19
77019;BME280;66044;53.142;17.962;2023-07-22T01:24:34;100451.77;;;16.20;67.17
77019;BME280;66044;53.142;17.962;2023-07-22T01:27:01;100442.72;;;16.20;67.09
77019;BME280;66044;53.142;17.962;2023-07-22T01:29:29;100444.34;;;16.20;67.58
77019;BME280;66044;53.142;17.962;2023-07-22T01:31:56;100435.77;;;16.17;67.55
77019;BME280;66044;53.142;17.962;2023-07-22T01:34:22;100435.31;;;16.11;67.63
77019;BME280;66044;53.142;17.962;2023-07-22T01:36:50;100436.15;;;16.10;67.58
77019;BME280;66044;53.142;17.962;2023-07-22T01:39:17;100432.30;;;16.12;67.67
77019;BME280;66044;53.142;17.962;2023-07-22T01:41:48;100427.07;;;16.13;67.53
77019;BME280;66044;53.142;17.962;2023-07-22T01:44:15;100421.98;;;16.14;67.66
77019;BME280;66044;53.142;17.962;2023-07-22T01:46:41;100420.02;;;16.13;67.61
77019;BME280;66044;53.142;17.962;2023-07-22T01:49:10;100427.20;;;16.13;67.91
77019;BME280;66044;53.142;17.962;2023-07-22T01:51:39;100436.05;;;16.13;67.74
77019;BME280;66044;53.142;17.962;2023-07-22T01:54:08;100436.75;;;16.13;68.09
77019;BME280;66044;53.142;17.962;2023-07-22T01:56:36;100433.01;;;16.12;68.25
77019;BME280;66044;53.142;17.962;2023-07-22T01:59:03;100441.57;;;16.10;68.15
77019;BME280;66044;53.142;17.962;2023-07-22T02:01:29;100441.41;;;16.08;68.61
77019;BME280;66044;53.142;17.962;2023-07-22T02:03:56;100427.48;;;16.03;68.37
77019;BME280;66044;53.142;17.962;2023-07-22T02:06:22;100417.92;;;15.96;68.71
77019;BME280;66044;53.142;17.962;2023-07-22T02:08:49;100409.73;;;15.95;68.82
77019;BME280;66044;53.142;17.962;2023-07-22T02:11:16;100410.59;;;15.96;68.81
77019;BME280;66044;53.142;17.962;2023-07-22T02:13:43;100412.45;;;15.97;68.85
77019;BME280;66044;53.142;17.962;2023-07-22T02:16:10;100418.05;;;15.98;68.94
77019;BME280;66044;53.142;17.962;2023-07-22T02:18:38;100417.61;;;15.99;68.74
77019;BME280;66044;53.142;17.962;2023-07-22T02:21:04;100415.84;;;16.00;69.07
77019;BME280;66044;53.142;17.962;2023-07-22T02:23:31;100424.36;;;16.01;69.09
77019;BME280;66044;53.142;17.962;2023-07-22T02:25:57;100423.66;;;16.00;68.69
77019;BME280;66044;53.142;17.962;2023-07-22T02:28:24;100423.42;;;16.00;68.75
77019;BME280;66044;53.142;17.962;2023-07-22T02:30:52;100427.43;;;15.99;68.79
77019;BME280;66044;53.142;17.962;2023-07-22T02:33:19;100423.86;;;15.98;68.66
77019;BME280;66044;53.142;17.962;2023-07-22T02:35:47;100424.00;;;15.97;68.67
77019;BME280;66044;53.142;17.962;2023-07-22T02:38:14;100424.07;;;15.97;68.69
77019;BME280;66044;53.142;17.962;2023-07-22T02:40:41;100428.91;;;15.95;69.00
77019;BME280;66044;53.142;17.962;2023-07-22T02:43:07;100431.77;;;15.95;68.82
77019;BME280;66044;53.142;17.962;2023-07-22T02:45:36;100433.48;;;15.94;68.95
77019;BME280;66044;53.142;17.962;2023-07-22T02:48:02;100434.63;;;15.92;69.06
77019;BME280;66044;53.142;17.962;2023-07-22T02:50:31;100438.09;;;15.91;69.06
77019;BME280;66044;53.142;17.962;2023-07-22T02:52:58;100438.78;;;15.91;69.34
77019;BME280;66044;53.142;17.962;2023-07-22T02:55:24;100440.92;;;15.90;69.90
77019;BME280;66044;53.142;17.962;2023-07-22T02:57:51;100440.88;;;15.86;69.98
77019;BME280;66044;53.142;17.962;2023-07-22T03:00:18;100443.17;;;15.84;70.25
77019;BME280;66044;53.142;17.962;2023-07-22T03:02:52;100444.31;;;15.82;70.52
77019;BME280;66044;53.142;17.962;2023-07-22T03:05:20;100442.66;;;15.81;70.76
77019;BME280;66044;53.142;17.962;2023-07-22T03:07:48;100447.29;;;15.79;70.74
77019;BME280;66044;53.142;17.962;2023-07-22T03:10:14;100440.55;;;15.78;70.80
77019;BME280;66044;53.142;17.962;2023-07-22T03:12:41;100447.34;;;15.77;70.93
77019;BME280;66044;53.142;17.962;2023-07-22T03:15:07;100447.42;;;15.77;70.63
77019;BME280;66044;53.142;17.962;2023-07-22T03:17:35;100449.11;;;15.76;71.03
77019;BME280;66044;53.142;17.962;2023-07-22T03:20:03;100456.14;;;15.76;70.93
77019;BME280;66044;53.142;17.962;2023-07-22T03:22:41;100457.88;;;15.77;71.08
77019;BME280;66044;53.142;17.962;2023-07-22T03:25:11;100458.73;;;15.78;70.91
77019;BME280;66044;53.142;17.962;2023-07-22T03:27:39;100457.20;;;15.80;70.95
77019;BME280;66044;53.142;17.962;2023-07-22T03:30:06;100457.77;;;15.82;71.03
77019;BME280;66044;53.142;17.962;2023-07-22T03:32:37;100456.95;;;15.83;70.96
77019;BME280;66044;53.142;17.962;2023-07-22T03:35:03;100451.10;;;15.86;71.35
77019;BME280;66044;53.142;17.962;2023-07-22T03:37:30;100452.36;;;15.88;71.30
77019;BME280;66044;53.142;17.962;2023-07-22T03:39:56;100453.13;;;15.92;71.18
77019;BME280;66044;53.142;17.962;2023-07-22T03:42:23;100455.29;;;15.98;70.72
77019;BME280;66044;53.142;17.962;2023-07-22T03:44:49;100456.27;;;16.03;70.75
77019;BME280;66044;53.142;17.962;2023-07-22T03:47:16;100455.77;;;16.05;70.68
77019;BME280;66044;53.142;17.962;2023-07-22T03:49:42;100455.48;;;16.08;70.55
77019;BME280;66044;53.142;17.962;2023-07-22T03:52:08;100461.68;;;16.14;70.42
77019;BME280;66044;53.142;17.962;2023-07-22T03:54:35;100462.71;;;16.22;70.23
77019;BME280;66044;53.142;17.962;2023-07-22T03:57:01;100465.34;;;16.28;70.31
77019;BME280;66044;53.142;17.962;2023-07-22T03:59:28;100472.17;;;16.35;70.16
77019;BME280;66044;53.142;17.962;2023-07-22T04:01:54;100474.83;;;16.36;70.25
77019;BME280;66044;53.142;17.962;2023-07-22T04:04:21;100472.30;;;16.41;70.03
77019;BME280;66044;53.142;17.962;2023-07-22T04:06:47;100474.83;;;16.43;69.83
77019;BME280;66044;53.142;17.962;2023-07-22T04:09:14;100477.41;;;16.45;69.84
77019;BME280;66044;53.142;17.962;2023-07-22T04:11:40;100476.10;;;16.58;69.65
77019;BME280;66044;53.142;17.962;2023-07-22T04:14:07;100476.70;;;17.59;68.51
77019;BME280;66044;53.142;17.962;2023-07-22T04:16:33;100475.02;;;18.42;66.91
77019;BME280;66044;53.142;17.962;2023-07-22T04:19:00;100477.21;;;18.91;66.03
77019;BME280;66044;53.142;17.962;2023-07-22T04:21:26;100483.07;;;19.12;65.13
77019;BME280;66044;53.142;17.962;2023-07-22T04:23:52;100481.83;;;19.21;64.42
77019;BME280;66044;53.142;17.962;2023-07-22T04:26:19;100488.05;;;19.78;63.13
77019;BME280;66044;53.142;17.962;2023-07-22T04:28:46;100491.20;;;21.24;60.86
77019;BME280;66044;53.142;17.962;2023-07-22T04:31:13;100497.02;;;22.73;58.14
77019;BME280;66044;53.142;17.962;2023-07-22T04:33:39;100500.52;;;24.14;55.84
77019;BME280;66044;53.142;17.962;2023-07-22T04:36:07;100503.29;;;25.48;53.06
77019;BME280;66044;53.142;17.962;2023-07-22T04:38:34;100505.08;;;26.65;50.42
77019;BME280;66044;53.142;17.962;2023-07-22T04:41:02;100509.92;;;27.75;47.78
77019;BME280;66044;53.142;17.962;2023-07-22T04:43:31;100512.02;;;28.70;45.10
77019;BME280;66044;53.142;17.962;2023-07-22T04:45:57;100515.04;;;29.51;43.29
77019;BME280;66044;53.142;17.962;2023-07-22T04:48:24;100522.13;;;30.18;41.50
77019;BME280;66044;53.142;17.962;2023-07-22T04:50:50;100523.23;;;30.79;39.97
77019;BME280;66044;53.142;17.962;2023-07-22T04:53:18;100523.89;;;31.36;38.51
77019;BME280;66044;53.142;17.962;2023-07-22T04:55:44;100523.10;;;31.78;37.23
77019;BME280;66044;53.142;17.962;2023-07-22T04:58:11;100528.91;;;32.03;36.56
77019;BME280;66044;53.142;17.962;2023-07-22T05:00:38;100525.73;;;32.14;36.10
77019;BME280;66044;53.142;17.962;2023-07-22T05:03:05;100527.54;;;32.88;35.17
77019;BME280;66044;53.142;17.962;2023-07-22T05:05:32;100527.34;;;33.36;34.10
77019;BME280;66044;53.142;17.962;2023-07-22T05:07:58;100528.59;;;34.01;33.16
77019;BME280;66044;53.142;17.962;2023-07-22T05:10:25;100530.42;;;34.52;32.05
77019;BME280;66044;53.142;17.962;2023-07-22T05:12:51;100527.22;;;34.64;31.01
77019;BME280;66044;53.142;17.962;2023-07-22T05:15:18;100527.33;;;34.19;30.79
77019;BME280;66044;53.142;17.962;2023-07-22T05:17:44;100526.73;;;34.22;30.72
77019;BME280;66044;53.142;17.962;2023-07-22T05:20:11;100532.73;;;34.79;30.24
77019;BME280;66044;53.142;17.962;2023-07-22T05:22:39;100526.34;;;35.59;29.26
77019;BME280;66044;53.142;17.962;2023-07-22T05:25:07;100528.27;;;36.42;28.44
77019;BME280;66044;53.142;17.962;2023-07-22T05:27:34;100524.92;;;37.16;27.22
77019;BME280;66044;53.142;17.962;2023-07-22T05:30:00;100526.64;;;37.50;26.22
77019;BME280;66044;53.142;17.962;2023-07-22T05:32:29;100531.41;;;37.91;25.81
77019;BME280;66044;53.142;17.962;2023-07-22T05:34:56;100533.06;;;38.74;24.92
77019;BME280;66044;53.142;17.962;2023-07-22T05:37:23;100526.39;;;39.14;23.92
77019;BME280;66044;53.142;17.962;2023-07-22T05:39:51;100526.79;;;39.65;23.96
77019;BME280;66044;53.142;17.962;2023-07-22T05:42:18;100529.81;;;40.31;22.49
77019;BME280;66044;53.142;17.962;2023-07-22T05:44:44;100530.50;;;40.69;22.18
77019;BME280;66044;53.142;17.962;2023-07-22T05:47:10;100524.30;;;41.35;22.11
77019;BME280;66044;53.142;17.962;2023-07-22T05:49:37;100523.34;;;42.12;21.22
77019;BME280;66044;53.142;17.962;2023-07-22T05:52:04;100522.76;;;42.79;20.54
77019;BME280;66044;53.142;17.962;2023-07-22T05:54:30;100524.65;;;43.19;19.75
77019;BME280;66044;53.142;17.962;2023-07-22T05:56:57;100524.44;;;43.51;19.30
77019;BME280;66044;53.142;17.962;2023-07-22T05:59:23;100530.98;;;44.16;18.97
77019;BME280;66044;53.142;17.962;2023-07-22T06:01:50;100529.34;;;44.68;18.46
77019;BME280;66044;53.142;17.962;2023-07-22T06:04:16;100531.80;;;45.23;17.94
77019;BME280;66044;53.142;17.962;2023-07-22T06:06:43;100527.35;;;45.94;17.86
77019;BME280;66044;53.142;17.962;2023-07-22T06:09:10;100525.40;;;46.66;16.79
77019;BME280;66044;53.142;17.962;2023-07-22T06:11:37;100529.52;;;47.01;16.33
77019;BME280;66044;53.142;17.962;2023-07-22T06:14:03;100532.48;;;47.30;16.13
77019;BME280;66044;53.142;17.962;2023-07-22T06:16:30;100534.34;;;47.73;15.57
77019;BME280;66044;53.142;17.962;2023-07-22T06:18:56;100538.73;;;47.87;15.15
77019;BME280;66044;53.142;17.962;2023-07-22T06:21:23;100541.73;;;47.70;15.12
77019;BME280;66044;53.142;17.962;2023-07-22T06:23:50;100541.98;;;48.04;15.38
77019;BME280;66044;53.142;17.962;2023-07-22T06:26:16;100540.45;;;48.80;14.76
77019;BME280;66044;53.142;17.962;2023-07-22T06:28:43;100542.81;;;49.35;14.03
77019;BME280;66044;53.142;17.962;2023-07-22T06:31:09;100543.91;;;49.69;14.00
77019;BME280;66044;53.142;17.962;2023-07-22T06:33:36;100547.58;;;50.15;13.48
77019;BME280;66044;53.142;17.962;2023-07-22T06:36:02;100542.80;;;50.61;13.27
77019;BME280;66044;53.142;17.962;2023-07-22T06:38:29;100540.40;;;51.07;12.98
77019;BME280;66044;53.142;17.962;2023-07-22T06:40:55;100537.39;;;51.53;12.57
77019;BME280;66044;53.142;17.962;2023-07-22T06:43:22;100539.34;;;51.92;12.58
77019;BME280;66044;53.142;17.962;2023-07-22T06:45:49;100539.09;;;52.16;11.68
77019;BME280;66044;53.142;17.962;2023-07-22T06:48:15;100542.05;;;52.15;11.39
77019;BME280;66044;53.142;17.962;2023-07-22T06:50:50;100540.11;;;51.96;11.44
77019;BME280;66044;53.142;17.962;2023-07-22T06:53:18;100544.63;;;51.85;11.73
77019;BME280;66044;53.142;17.962;2023-07-22T06:55:50;100537.52;;;51.77;11.73
77019;BME280;66044;53.142;17.962;2023-07-22T06:58:21;100537.30;;;51.74;11.49
77019;BME280;66044;53.142;17.962;2023-07-22T07:00:54;100538.39;;;52.00;11.32
77019;BME280;66044;53.142;17.962;2023-07-22T07:03:23;100536.08;;;51.82;11.48
77019;BME280;66044;53.142;17.962;2023-07-22T07:05:54;100537.92;;;50.40;12.15
77019;BME280;66044;53.142;17.962;2023-07-22T07:08:22;100535.55;;;50.19;12.40
77019;BME280;66044;53.142;17.962;2023-07-22T07:10:50;100537.65;;;50.70;12.22
77019;BME280;66044;53.142;17.962;2023-07-22T07:13:18;100538.41;;;50.98;11.87
77019;BME280;66044;53.142;17.962;2023-07-22T07:15:48;100536.54;;;51.62;11.47
77019;BME280;66044;53.142;17.962;2023-07-22T07:18:15;100539.27;;;52.12;11.25
77019;BME280;66044;53.142;17.962;2023-07-22T07:20:43;100542.25;;;52.42;11.27
77019;BME280;66044;53.142;17.962;2023-07-22T07:23:13;100543.25;;;52.54;11.12
77019;BME280;66044;53.142;17.962;2023-07-22T07:25:45;100547.17;;;53.16;10.92
77019;BME280;66044;53.142;17.962;2023-07-22T07:28:12;100553.59;;;53.50;10.43
77019;BME280;66044;53.142;17.962;2023-07-22T07:30:41;100547.80;;;53.57;10.29
77019;BME280;66044;53.142;17.962;2023-07-22T07:33:08;100551.36;;;53.47;9.92
77019;BME280;66044;53.142;17.962;2023-07-22T07:35:35;100544.02;;;52.10;10.39
77019;BME280;66044;53.142;17.962;2023-07-22T07:38:05;100543.73;;;50.61;11.26
77019;BME280;66044;53.142;17.962;2023-07-22T07:40:32;100547.48;;;50.67;11.08
77019;BME280;66044;53.142;17.962;2023-07-22T07:42:59;100547.07;;;50.34;11.14
77019;BME280;66044;53.142;17.962;2023-07-22T07:45:26;100545.19;;;49.85;11.32
77019;BME280;66044;53.142;17.962;2023-07-22T07:47:53;100547.48;;;49.46;11.50
77019;BME280;66044;53.142;17.962;2023-07-22T07:50:20;100547.29;;;48.49;11.96
77019;BME280;66044;53.142;17.962;2023-07-22T07:52:47;100544.05;;;47.78;12.75
77019;BME280;66044;53.142;17.962;2023-07-22T07:55:15;100536.51;;;46.60;13.40
77019;BME280;66044;53.142;17.962;2023-07-22T07:57:42;100533.55;;;44.94;14.30
77019;BME280;66044;53.142;17.962;2023-07-22T08:00:09;100533.58;;;42.84;15.35
77019;BME280;66044;53.142;17.962;2023-07-22T08:02:36;100533.54;;;40.90;16.72
77019;BME280;66044;53.142;17.962;2023-07-22T08:05:03;100532.27;;;39.38;18.17
77019;BME280;66044;53.142;17.962;2023-07-22T08:07:30;100532.98;;;37.99;19.45
77019;BME280;66044;53.142;17.962;2023-07-22T08:09:56;100530.00;;;36.80;20.48
77019;BME280;66044;53.142;17.962;2023-07-22T08:12:25;100536.39;;;35.57;21.79
77019;BME280;66044;53.142;17.962;2023-07-22T08:14:53;100535.73;;;34.69;22.71
77019;BME280;66044;53.142;17.962;2023-07-22T08:17:20;100537.02;;;33.98;23.68
77019;BME280;66044;53.142;17.962;2023-07-22T08:19:52;100537.82;;;33.36;24.58
77019;BME280;66044;53.142;17.962;2023-07-22T08:22:18;100536.94;;;33.14;25.13
77019;BME280;66044;53.142;17.962;2023-07-22T08:24:47;100540.27;;;32.86;25.54
77019;BME280;66044;53.142;17.962;2023-07-22T08:27:13;100539.39;;;32.49;25.97
77019;BME280;66044;53.142;17.962;2023-07-22T08:29:40;100534.10;;;32.00;26.44
77019;BME280;66044;53.142;17.962;2023-07-22T08:32:12;100536.23;;;31.37;27.14
77019;BME280;66044;53.142;17.962;2023-07-22T08:34:39;100540.99;;;30.77;28.20
77019;BME280;66044;53.142;17.962;2023-07-22T08:37:07;100545.66;;;30.22;28.96
77019;BME280;66044;53.142;17.962;2023-07-22T08:39:37;100543.31;;;29.86;29.83
77019;BME280;66044;53.142;17.962;2023-07-22T08:42:04;100540.88;;;29.56;30.36
77019;BME280;66044;53.142;17.962;2023-07-22T08:44:38;100550.84;;;29.26;30.99
77019;BME280;66044;53.142;17.962;2023-07-22T08:47:10;100552.51;;;29.03;31.47
77019;BME280;66044;53.142;17.962;2023-07-22T08:49:45;100553.50;;;28.65;32.25
77019;BME280;66044;53.142;17.962;2023-07-22T08:52:14;100558.38;;;28.30;32.67
77019;BME280;66044;53.142;17.962;2023-07-22T08:54:42;100560.36;;;28.19;32.91
77019;BME280;66044;53.142;17.962;2023-07-22T08:57:11;100565.09;;;28.19;33.41
77019;BME280;66044;53.142;17.962;2023-07-22T08:59:38;100568.97;;;28.27;33.29
77019;BME280;66044;53.142;17.962;2023-07-22T09:02:10;100570.92;;;28.28;33.32
77019;BME280;66044;53.142;17.962;2023-07-22T09:04:39;100574.23;;;28.10;33.93
77019;BME280;66044;53.142;17.962;2023-07-22T09:07:08;100573.44;;;27.87;34.20
77019;BME280;66044;53.142;17.962;2023-07-22T09:09:37;100575.26;;;27.61;34.46
77019;BME280;66044;53.142;17.962;2023-07-22T09:12:05;100575.30;;;27.27;34.94
77019;BME280;66044;53.142;17.962;2023-07-22T09:14:33;100581.91;;;26.86;35.78
77019;BME280;66044;53.142;17.962;2023-07-22T09:17:00;100583.33;;;26.47;36.22
77019;BME280;66044;53.142;17.962;2023-07-22T09:19:29;100582.86;;;26.02;37.02
77019;BME280;66044;53.142;17.962;2023-07-22T09:21:56;100589.77;;;25.79;37.61
77019;BME280;66044;53.142;17.962;2023-07-22T09:24:24;100589.56;;;25.71;37.95
77019;BME280;66044;53.142;17.962;2023-07-22T09:26:52;100590.73;;;25.54;38.29
77019;BME280;66044;53.142;17.962;2023-07-22T09:29:32;100589.06;;;25.45;38.63
77019;BME280;66044;53.142;17.962;2023-07-22T09:31:59;100591.24;;;25.45;38.78
77019;BME280;66044;53.142;17.962;2023-07-22T09:34:27;100600.52;;;25.39;39.07
77019;BME280;66044;53.142;17.962;2023-07-22T09:36:56;100601.30;;;25.42;39.19
77019;BME280;66044;53.142;17.962;2023-07-22T09:39:24;100603.09;;;25.33;39.46
77019;BME280;66044;53.142;17.962;2023-07-22T09:41:51;100612.96;;;25.16;39.42
77019;BME280;66044;53.142;17.962;2023-07-22T09:44:21;100614.96;;;24.89;39.99
77019;BME280;66044;53.142;17.962;2023-07-22T09:46:50;100610.36;;;24.64;40.55
77019;BME280;66044;53.142;17.962;2023-07-22T09:49:18;100607.82;;;24.33;41.01
77019;BME280;66044;53.142;17.962;2023-07-22T09:51:45;100607.73;;;24.01;41.43
77019;BME280;66044;53.142;17.962;2023-07-22T09:54:12;100608.02;;;23.75;41.71
77019;BME280;66044;53.142;17.962;2023-07-22T09:56:47;100612.08;;;23.56;42.31
77019;BME280;66044;53.142;17.962;2023-07-22T09:59:15;100611.64;;;23.47;42.49
77019;BME280;66044;53.142;17.962;2023-07-22T10:01:48;100611.68;;;23.61;42.80
77019;BME280;66044;53.142;17.962;2023-07-22T10:04:16;100604.55;;;23.75;42.77
77019;BME280;66044;53.142;17.962;2023-07-22T10:06:46;100614.13;;;23.85;42.44
77019;BME280;66044;53.142;17.962;2023-07-22T10:09:15;100611.61;;;23.84;42.17
77019;BME280;66044;53.142;17.962;2023-07-22T10:11:42;100612.80;;;23.80;42.37
77019;BME280;66044;53.142;17.962;2023-07-22T10:14:09;100608.66;;;23.73;42.09
77019;BME280;66044;53.142;17.962;2023-07-22T10:16:37;100613.66;;;23.70;41.90
77019;BME280;66044;53.142;17.962;2023-07-22T10:19:04;100609.24;;;23.67;41.72
77019;BME280;66044;53.142;17.962;2023-07-22T10:21:32;100610.28;;;23.70;41.65
77019;BME280;66044;53.142;17.962;2023-07-22T10:24:01;100618.71;;;23.67;41.68
77019;BME280;66044;53.142;17.962;2023-07-22T10:26:29;100620.92;;;23.61;41.68
77019;BME280;66044;53.142;17.962;2023-07-22T10:28:56;100622.13;;;23.65;41.72
77019;BME280;66044;53.142;17.962;2023-07-22T10:31:23;100615.79;;;23.69;41.90
77019;BME280;66044;53.142;17.962;2023-07-22T10:33:50;100615.96;;;23.77;41.80
77019;BME280;66044;53.142;17.962;2023-07-22T10:36:17;100615.48;;;23.84;41.44
77019;BME280;66044;53.142;17.962;2023-07-22T10:38:44;100612.34;;;23.88;41.33
77019;BME280;66044;53.142;17.962;2023-07-22T10:41:21;100615.86;;;23.93;41.29
77019;BME280;66044;53.142;17.962;2023-07-22T10:43:56;100612.73;;;23.97;41.09
77019;BME280;66044;53.142;17.962;2023-07-22T10:46:37;100614.25;;;24.05;40.71
77019;BME280;66044;53.142;17.962;2023-07-22T10:49:13;100611.17;;;24.01;40.39
77019;BME280;66044;53.142;17.962;2023-07-22T10:51:40;100613.74;;;23.98;40.15
77019;BME280;66044;53.142;17.962;2023-07-22T10:54:14;100607.80;;;23.91;40.02
77019;BME280;66044;53.142;17.962;2023-07-22T10:56:44;100614.35;;;23.94;40.25
77019;BME280;66044;53.142;17.962;2023-07-22T10:59:11;100617.02;;;23.95;40.11
77019;BME280;66044;53.142;17.962;2023-07-22T11:01:43;100613.39;;;24.04;39.95
77019;BME280;66044;53.142;17.962;2023-07-22T11:12:16;100618.80;;;24.19;40.01
77019;BME280;66044;53.142;17.962;2023-07-22T11:14:51;100629.61;;;24.25;39.55
77019;BME280;66044;53.142;17.962;2023-07-22T11:17:27;100621.96;;;24.40;39.44
77019;BME280;66044;53.142;17.962;2023-07-22T11:19:56;100620.77;;;24.57;39.16
77019;BME280;66044;53.142;17.962;2023-07-22T11:22:23;100617.48;;;24.68;38.88
77019;BME280;66044;53.142;17.962;2023-07-22T11:24:49;100622.21;;;24.67;38.50
77019;BME280;66044;53.142;17.962;2023-07-22T11:27:16;100620.21;;;24.65;38.30
77019;BME280;66044;53.142;17.962;2023-07-22T11:29:43;100618.20;;;24.67;37.48
77019;BME280;66044;53.142;17.962;2023-07-22T11:32:17;100620.18;;;24.59;36.41
77019;BME280;66044;53.142;17.962;2023-07-22T11:34:44;100622.43;;;24.49;36.35
77019;BME280;66044;53.142;17.962;2023-07-22T11:37:11;100618.99;;;24.44;36.56
77019;BME280;66044;53.142;17.962;2023-07-22T11:39:38;100618.80;;;24.41;36.27
77019;BME280;66044;53.142;17.962;2023-07-22T11:42:05;100616.13;;;24.42;36.54
77019;BME280;66044;53.142;17.962;2023-07-22T11:44:32;100617.08;;;24.42;36.56
77019;BME280;66044;53.142;17.962;2023-07-22T11:47:04;100621.42;;;24.39;36.50
77019;BME280;66044;53.142;17.962;2023-07-22T11:49:38;100615.07;;;24.39;36.55
77019;BME280;66044;53.142;17.962;2023-07-22T11:52:17;100626.01;;;24.33;36.35
77019;BME280;66044;53.142;17.962;2023-07-22T11:54:45;100627.05;;;24.23;36.40
77019;BME280;66044;53.142;17.962;2023-07-22T11:57:21;100627.30;;;24.12;36.48
77019;BME280;66044;53.142;17.962;2023-07-22T11:59:49;100630.37;;;24.07;36.88
77019;BME280;66044;53.142;17.962;2023-07-22T12:02:21;100627.85;;;24.12;37.02
77019;BME280;66044;53.142;17.962;2023-07-22T12:05:00;100626.05;;;24.16;37.35
77019;BME280;66044;53.142;17.962;2023-07-22T12:07:33;100625.00;;;24.23;37.50
77019;BME280;66044;53.142;17.962;2023-07-22T12:10:01;100620.73;;;24.31;37.32
77019;BME280;66044;53.142;17.962;2023-07-22T12:12:37;100626.33;;;24.34;37.51
77019;BME280;66044;53.142;17.962;2023-07-22T12:15:16;100623.29;;;24.45;37.28
77019;BME280;66044;53.142;17.962;2023-07-22T12:18:00;100621.80;;;24.60;36.59
77019;BME280;66044;53.142;17.962;2023-07-22T12:20:31;100623.48;;;24.71;35.96
77019;BME280;66044;53.142;17.962;2023-07-22T12:22:59;100620.39;;;24.80;35.25
77019;BME280;66044;53.142;17.962;2023-07-22T12:25:26;100619.23;;;24.83;34.72
77019;BME280;66044;53.142;17.962;2023-07-22T12:27:53;100626.44;;;24.92;34.92
77019;BME280;66044;53.142;17.962;2023-07-22T12:30:22;100628.83;;;24.98;34.61
77019;BME280;66044;53.142;17.962;2023-07-22T12:32:50;100639.17;;;24.99;34.24
77019;BME280;66044;53.142;17.962;2023-07-22T12:35:16;100640.16;;;24.94;34.35
77019;BME280;66044;53.142;17.962;2023-07-22T12:37:43;100635.41;;;24.96;34.45
77019;BME280;66044;53.142;17.962;2023-07-22T12:40:10;100638.88;;;25.02;34.39
77019;BME280;66044;53.142;17.962;2023-07-22T12:42:40;100634.73;;;25.10;33.95
77019;BME280;66044;53.142;17.962;2023-07-22T12:45:07;100629.17;;;25.15;33.12
77019;BME280;66044;53.142;17.962;2023-07-22T12:47:34;100628.73;;;25.18;33.08
77019;BME280;66044;53.142;17.962;2023-07-22T12:50:00;100632.58;;;25.22;32.99
77019;BME280;66044;53.142;17.962;2023-07-22T12:52:27;100635.82;;;25.20;33.08
77019;BME280;66044;53.142;17.962;2023-07-22T12:54:53;100636.41;;;25.22;33.31